createdAt,value
2018-01-26T00:00:52.760Z,5.10
2018-01-26T00:03:21.396Z,5.00
2018-01-26T00:05:49.969Z,4.90
2018-01-26T00:08:18.722Z,4.90
2018-01-26T00:10:47.246Z,4.80
2018-01-26T00:13:15.622Z,4.80
2018-01-26T00:15:44.082Z,4.80
2018-01-26T00:18:12.768Z,4.70
2018-01-26T00:20:41.141Z,4.70
2018-01-26T00:23:10.538Z,4.70
2018-01-26T00:25:38.918Z,4.70
2018-01-26T00:28:07.534Z,4.60
2018-01-26T00:30:35.898Z,4.60
2018-01-26T00:33:04.566Z,4.50
2018-01-26T00:35:32.946Z,4.50
2018-01-26T00:38:01.545Z,4.40
2018-01-26T00:40:30.721Z,4.20
2018-01-26T00:42:59.103Z,4.20
2018-01-26T00:45:28.397Z,4.20
2018-01-26T00:47:56.995Z,4.10
2018-01-26T00:50:26.289Z,4.10
2018-01-26T00:52:54.925Z,4.10
2018-01-26T00:55:24.118Z,4.00
2018-01-26T00:57:52.905Z,4.00
2018-01-26T01:00:21.783Z,4.00
2018-01-26T01:02:50.445Z,4.00
2018-01-26T01:05:19.083Z,3.90
2018-01-26T01:07:47.469Z,3.80
2018-01-26T01:10:16.057Z,3.80
2018-01-26T01:12:45.449Z,3.90
2018-01-26T01:15:13.829Z,3.80
2018-01-26T01:17:42.474Z,4.10
2018-01-26T01:20:11.620Z,4.00
2018-01-26T01:22:40.308Z,4.00
2018-01-26T01:25:08.696Z,4.00
2018-01-26T01:27:37.354Z,3.80
2018-01-26T01:30:05.726Z,3.80
2018-01-26T01:32:34.369Z,3.80
2018-01-26T01:35:02.743Z,3.90
2018-01-26T01:37:31.110Z,3.80
2018-01-26T01:39:59.485Z,3.80
2018-01-26T01:42:28.179Z,3.90
2018-01-26T01:44:56.362Z,4.00
2018-01-26T01:47:24.745Z,4.00
2018-01-26T01:49:53.121Z,4.10
2018-01-26T01:52:22.257Z,4.20
2018-01-26T01:54:50.842Z,4.20
2018-01-26T01:57:19.525Z,4.30
2018-01-26T01:59:47.885Z,4.20
2018-01-26T02:02:17.029Z,4.00
2018-01-26T02:04:46.207Z,3.90
2018-01-26T02:07:14.653Z,3.90
2018-01-26T02:09:43.802Z,3.90
2018-01-26T02:12:12.369Z,3.90
2018-01-26T02:14:40.748Z,3.90
2018-01-26T02:17:10.193Z,3.80
2018-01-26T02:19:38.827Z,3.80
2018-01-26T02:22:07.196Z,3.80
2018-01-26T02:24:35.714Z,3.70
2018-01-26T02:27:04.282Z,3.60
2018-01-26T02:29:32.988Z,3.50
2018-01-26T02:32:01.631Z,3.40
2018-01-26T02:34:31.048Z,3.30
2018-01-26T02:37:00.446Z,3.20
2018-01-26T02:39:29.046Z,3.20
2018-01-26T02:41:57.686Z,3.20
2018-01-26T02:44:26.327Z,3.20
2018-01-26T02:46:54.951Z,3.10
2018-01-26T02:49:23.962Z,3.10
2018-01-26T02:51:52.338Z,3.00
2018-01-26T02:54:20.722Z,3.00
2018-01-26T02:56:49.205Z,3.10
2018-01-26T02:59:17.899Z,3.10
2018-01-26T03:01:46.457Z,3.10
2018-01-26T03:04:15.859Z,3.00
2018-01-26T03:06:44.226Z,3.00
2018-01-26T03:09:12.913Z,3.00
2018-01-26T03:11:41.403Z,3.00
2018-01-26T03:14:10.065Z,3.00
2018-01-26T03:16:39.209Z,2.90
2018-01-26T03:19:07.867Z,2.90
2018-01-26T03:21:36.465Z,2.90
2018-01-26T03:24:05.677Z,2.90
2018-01-26T03:26:34.331Z,2.80
2018-01-26T03:29:02.699Z,2.80
2018-01-26T03:31:31.073Z,2.70
2018-01-26T03:33:59.704Z,2.70
2018-01-26T03:36:28.081Z,2.70
2018-01-26T03:38:56.471Z,2.60
2018-01-26T03:41:26.441Z,2.50
2018-01-26T03:43:54.862Z,2.50
2018-01-26T03:46:23.248Z,2.60
2018-01-26T03:48:51.878Z,2.80
2018-01-26T03:51:20.245Z,2.80
2018-01-26T03:53:48.890Z,2.80
2018-01-26T03:56:17.534Z,2.80
2018-01-26T03:58:46.926Z,2.80
2018-01-26T04:01:15.505Z,2.80
2018-01-26T04:03:43.922Z,2.80
2018-01-26T04:06:12.501Z,2.90
2018-01-26T04:08:40.890Z,2.80
2018-01-26T04:11:09.337Z,2.90
2018-01-26T04:13:38.746Z,3.00
2018-01-26T04:16:07.321Z,3.00
2018-01-26T04:18:36.721Z,3.00
2018-01-26T04:21:05.193Z,3.00
2018-01-26T04:23:33.573Z,3.10
2018-01-26T04:26:01.945Z,3.10
2018-01-26T04:28:30.577Z,3.00
2018-01-26T04:30:58.957Z,3.00
2018-01-26T04:33:27.329Z,3.00
2018-01-26T04:35:56.689Z,2.90
2018-01-26T04:38:25.518Z,2.90
2018-01-26T04:40:53.886Z,2.80
2018-01-26T04:43:22.264Z,2.80
2018-01-26T04:45:50.309Z,2.70
2018-01-26T04:48:19.724Z,2.50
2018-01-26T04:50:48.094Z,2.50
2018-01-26T04:53:16.790Z,2.50
2018-01-26T04:55:45.418Z,2.50
2018-01-26T04:58:14.050Z,2.50
2018-01-26T05:00:42.702Z,2.60
2018-01-26T05:03:11.401Z,2.50
2018-01-26T05:05:39.794Z,2.40
2018-01-26T05:08:08.346Z,2.30
2018-01-26T05:10:36.781Z,2.30
2018-01-26T05:13:05.414Z,2.20
2018-01-26T05:15:33.725Z,2.20
2018-01-26T05:18:02.094Z,2.10
2018-01-26T05:20:31.501Z,2.10
2018-01-26T05:22:59.959Z,2.10
2018-01-26T05:25:28.357Z,2.00
2018-01-26T05:27:57.753Z,1.90
2018-01-26T05:30:26.465Z,1.90
2018-01-26T05:32:54.837Z,1.90
2018-01-26T05:35:23.201Z,1.80
2018-01-26T05:37:51.611Z,1.70
2018-01-26T05:40:20.277Z,1.70
2018-01-26T05:42:48.928Z,1.60
2018-01-26T05:45:17.312Z,1.60
2018-01-26T05:47:45.681Z,1.60
2018-01-26T05:50:14.314Z,1.60
2018-01-26T05:52:42.982Z,1.60
2018-01-26T05:55:11.566Z,1.70
2018-01-26T05:57:40.946Z,1.80
2018-01-26T06:00:10.362Z,1.80
2018-01-26T06:02:38.730Z,1.70
2018-01-26T06:05:08.134Z,1.80
2018-01-26T06:07:37.438Z,1.90
2018-01-26T06:10:06.074Z,1.90
2018-01-26T06:12:35.422Z,2.00
2018-01-26T06:15:03.835Z,2.00
2018-01-26T06:17:32.258Z,1.90
2018-01-26T06:20:00.786Z,1.80
2018-01-26T06:22:29.166Z,1.70
2018-01-26T06:24:57.347Z,1.60
2018-01-26T06:27:25.729Z,1.60
2018-01-26T06:29:54.293Z,1.60
2018-01-26T06:32:22.779Z,1.60
2018-01-26T06:34:51.419Z,1.60
2018-01-26T06:37:21.059Z,1.50
2018-01-26T06:39:49.433Z,1.50
2018-01-26T06:42:18.812Z,1.50
2018-01-26T06:44:47.285Z,1.50
2018-01-26T06:47:16.701Z,1.40
2018-01-26T06:49:45.981Z,1.50
2018-01-26T06:52:14.555Z,1.40
2018-01-26T06:54:43.197Z,1.50
2018-01-26T06:57:11.845Z,1.40
2018-01-26T06:59:40.226Z,1.40
2018-01-26T07:02:09.620Z,1.50
2018-01-26T07:04:38.165Z,1.50
2018-01-26T07:07:07.623Z,1.50
2018-01-26T07:09:36.115Z,1.50
2018-01-26T07:12:04.760Z,1.60
2018-01-26T07:14:33.470Z,1.70
2018-01-26T07:17:01.918Z,1.70
2018-01-26T07:19:30.288Z,1.70
2018-01-26T07:21:58.934Z,1.70
2018-01-26T07:24:27.386Z,1.80
2018-01-26T07:26:55.775Z,1.80
2018-01-26T07:29:24.433Z,1.90
2018-01-26T07:31:53.834Z,1.90
2018-01-26T07:34:23.241Z,1.90
2018-01-26T07:36:51.290Z,1.90
2018-01-26T07:39:19.926Z,2.00
2018-01-26T07:41:48.297Z,2.00
2018-01-26T07:44:16.973Z,2.00
2018-01-26T07:46:45.618Z,2.10
2018-01-26T07:49:14.249Z,2.10
2018-01-26T07:51:42.629Z,2.20
2018-01-26T07:54:11.374Z,2.20
2018-01-26T07:56:39.761Z,2.20
2018-01-26T07:59:08.292Z,2.30
2018-01-26T08:01:36.923Z,2.30
2018-01-26T08:04:06.344Z,2.40
2018-01-26T08:06:34.640Z,2.30
2018-01-26T08:09:03.301Z,2.50
2018-01-26T08:11:32.832Z,2.50
2018-01-26T08:14:01.675Z,2.50
2018-01-26T08:16:31.087Z,2.70
2018-01-26T08:19:00.506Z,2.80
2018-01-26T08:21:29.332Z,2.80
2018-01-26T08:23:58.468Z,3.10
2018-01-26T08:26:27.868Z,3.10
2018-01-26T08:28:57.912Z,3.20
2018-01-26T08:31:26.572Z,3.20
2018-01-26T08:33:55.242Z,3.30
2018-01-26T08:36:23.828Z,3.30
2018-01-26T08:38:52.230Z,3.40
2018-01-26T08:41:21.636Z,3.60
2018-01-26T08:43:50.026Z,3.60
2018-01-26T08:46:18.698Z,3.80
2018-01-26T08:48:47.334Z,3.90
2018-01-26T08:51:15.742Z,4.20
2018-01-26T08:53:44.114Z,4.40
2018-01-26T08:56:12.302Z,4.50
2018-01-26T08:58:40.697Z,4.50
2018-01-26T09:01:09.085Z,4.60
2018-01-26T09:03:37.129Z,4.60
2018-01-26T09:06:05.801Z,4.50
2018-01-26T09:08:35.258Z,4.50
2018-01-26T09:11:03.751Z,4.50
2018-01-26T09:13:32.895Z,4.80
2018-01-26T09:16:01.261Z,4.80
2018-01-26T09:18:30.551Z,4.80
2018-01-26T09:20:59.193Z,4.80
2018-01-26T09:23:27.581Z,5.00
2018-01-26T09:25:56.257Z,5.10
2018-01-26T09:28:24.701Z,5.30
2018-01-26T09:30:53.077Z,5.50
2018-01-26T09:33:22.442Z,5.60
2018-01-26T09:35:51.270Z,5.60
2018-01-26T09:38:20.031Z,5.70
2018-01-26T09:40:49.452Z,5.80
2018-01-26T09:43:17.924Z,5.80
2018-01-26T09:45:46.536Z,5.80
2018-01-26T09:48:14.914Z,5.70
2018-01-26T09:50:43.346Z,5.80
2018-01-26T09:53:11.882Z,5.70
2018-01-26T09:55:40.541Z,5.80
2018-01-26T09:58:08.950Z,5.90
2018-01-26T10:00:37.590Z,6.00
2018-01-26T10:03:06.217Z,6.10
2018-01-26T10:05:34.597Z,6.30
2018-01-26T10:08:02.966Z,6.30
2018-01-26T10:10:31.335Z,6.40
2018-01-26T10:13:00.031Z,6.50
2018-01-26T10:15:28.411Z,6.40
2018-01-26T10:17:56.781Z,6.50
2018-01-26T10:20:25.433Z,6.70
2018-01-26T10:22:53.806Z,7.10
2018-01-26T10:25:23.185Z,7.60
2018-01-26T10:27:51.062Z,7.60
2018-01-26T10:30:19.450Z,7.80
2018-01-26T10:32:47.822Z,8.00
2018-01-26T10:35:16.644Z,8.50
2018-01-26T10:37:45.300Z,8.60
2018-01-26T10:40:14.731Z,9.10
2018-01-26T10:42:43.928Z,9.10
2018-01-26T10:45:12.598Z,9.00
2018-01-26T10:47:41.254Z,9.00
2018-01-26T10:50:09.657Z,8.80
2018-01-26T10:52:38.369Z,8.80
2018-01-26T10:55:07.022Z,8.70
2018-01-26T10:57:35.745Z,8.40
2018-01-26T11:00:03.764Z,7.80
2018-01-26T11:02:32.152Z,7.60
2018-01-26T11:05:01.979Z,7.40
2018-01-26T11:07:30.469Z,6.90
2018-01-26T11:09:59.279Z,6.80
2018-01-26T11:12:28.394Z,6.80
2018-01-26T11:14:57.557Z,6.60
2018-01-26T11:17:26.221Z,6.60
2018-01-26T11:19:54.925Z,6.40
2018-01-26T11:22:23.557Z,6.30
2018-01-26T11:24:51.949Z,6.40
2018-01-26T11:27:20.360Z,6.30
2018-01-26T11:29:49.057Z,6.20
2018-01-26T11:32:17.597Z,6.40
2018-01-26T11:34:46.237Z,6.40
2018-01-26T11:37:14.880Z,6.60
2018-01-26T11:39:43.577Z,6.60
2018-01-26T11:42:12.227Z,6.60
2018-01-26T11:44:40.614Z,6.60
2018-01-26T11:47:10.039Z,6.50
2018-01-26T11:49:38.426Z,6.50
2018-01-26T11:52:06.926Z,6.50
2018-01-26T11:54:35.310Z,6.50
2018-01-26T11:57:03.887Z,6.60
2018-01-26T11:59:32.338Z,6.60
2018-01-26T12:02:00.728Z,6.60
2018-01-26T12:04:29.405Z,6.50
2018-01-26T12:06:58.050Z,6.50
2018-01-26T12:09:26.750Z,6.40
2018-01-26T12:11:55.413Z,6.20
2018-01-26T12:14:23.793Z,6.10
2018-01-26T12:16:52.177Z,6.00
2018-01-26T12:19:20.684Z,6.20
2018-01-26T12:21:49.064Z,6.30
2018-01-26T12:24:17.713Z,6.30
2018-01-26T12:26:46.617Z,6.30
2018-01-26T12:29:15.862Z,6.40
2018-01-26T12:31:44.273Z,6.40
2018-01-26T12:34:12.933Z,6.40
2018-01-26T12:36:41.397Z,6.30
2018-01-26T12:39:11.364Z,6.40
2018-01-26T12:41:40.801Z,6.40
2018-01-26T12:44:09.188Z,6.40
2018-01-26T12:46:37.842Z,6.40
2018-01-26T12:49:06.245Z,6.50
2018-01-26T12:51:34.832Z,6.30
2018-01-26T12:54:03.489Z,6.30
2018-01-26T12:56:32.194Z,6.30
2018-01-26T12:59:01.338Z,6.30
2018-01-26T13:01:30.030Z,6.30
2018-01-26T13:03:58.694Z,6.30
2018-01-26T13:06:27.150Z,6.30
2018-01-26T13:08:55.530Z,6.30
2018-01-26T13:11:24.193Z,6.30
2018-01-26T13:13:52.799Z,6.40
2018-01-26T13:16:21.182Z,6.40
2018-01-26T13:18:49.626Z,6.40
2018-01-26T13:21:17.993Z,6.30
2018-01-26T13:23:46.841Z,6.30
2018-01-26T13:26:15.505Z,6.20
2018-01-26T13:28:43.955Z,6.30
2018-01-26T13:31:12.605Z,6.40
2018-01-26T13:33:40.988Z,6.50
2018-01-26T13:36:09.645Z,6.60
2018-01-26T13:38:38.305Z,6.50
2018-01-26T13:41:06.996Z,6.40
2018-01-26T13:43:35.185Z,6.40
2018-01-26T13:46:04.453Z,6.20
2018-01-26T13:48:32.843Z,6.20
2018-01-26T13:51:01.222Z,6.20
2018-01-26T13:53:29.753Z,6.30
2018-01-26T13:55:58.450Z,6.30
2018-01-26T13:58:27.890Z,6.40
2018-01-26T14:00:56.534Z,6.30
2018-01-26T14:03:25.986Z,6.50
2018-01-26T14:05:54.645Z,6.50
2018-01-26T14:08:23.018Z,6.50
2018-01-26T14:10:52.321Z,6.60
2018-01-26T14:13:20.816Z,6.60
2018-01-26T14:15:49.198Z,6.60
2018-01-26T14:18:17.597Z,6.60
2018-01-26T14:20:46.225Z,6.70
2018-01-26T14:23:13.945Z,6.70
2018-01-26T14:25:43.209Z,6.70
2018-01-26T14:28:11.581Z,6.70
2018-01-26T14:30:40.046Z,6.80
2018-01-26T14:33:08.748Z,6.70
2018-01-26T14:35:37.149Z,6.80
2018-01-26T14:38:06.096Z,6.80
2018-01-26T14:40:34.488Z,6.80
2018-01-26T14:43:02.873Z,6.70
2018-01-26T14:45:31.308Z,6.80
2018-01-26T14:47:59.970Z,6.90
2018-01-26T14:50:29.290Z,7.00
2018-01-26T14:52:57.990Z,6.90
2018-01-26T14:55:26.672Z,6.80
2018-01-26T14:57:55.278Z,6.60
2018-01-26T15:00:23.938Z,6.40
2018-01-26T15:02:52.326Z,6.30
2018-01-26T15:05:21.754Z,6.00
2018-01-26T15:07:50.182Z,6.00
2018-01-26T15:10:19.835Z,5.70
2018-01-26T15:12:48.487Z,5.70
2018-01-26T15:15:17.130Z,5.60
2018-01-26T15:17:45.710Z,5.50
2018-01-26T15:20:13.701Z,5.50
2018-01-26T15:22:42.837Z,5.50
2018-01-26T15:25:11.189Z,5.50
2018-01-26T15:27:39.561Z,5.40
2018-01-26T15:30:08.193Z,5.40
2018-01-26T15:32:36.581Z,5.40
2018-01-26T15:35:05.863Z,5.30
2018-01-26T15:37:34.235Z,5.30
2018-01-26T15:40:02.287Z,5.30
2018-01-26T15:42:30.664Z,5.30
2018-01-26T15:44:59.296Z,5.30
2018-01-26T15:47:27.853Z,5.20
2018-01-26T15:49:56.594Z,5.20
2018-01-26T15:52:25.266Z,5.20
2018-01-26T15:54:53.878Z,5.10
2018-01-26T15:57:22.258Z,5.10
2018-01-26T15:59:50.634Z,5.10
2018-01-26T16:02:19.093Z,5.00
2018-01-26T16:04:47.746Z,5.00
2018-01-26T16:07:15.925Z,4.80
2018-01-26T16:09:45.232Z,4.70
2018-01-26T16:12:13.894Z,4.70
2018-01-26T16:14:42.282Z,4.60
2018-01-26T16:17:11.459Z,4.60
2018-01-26T16:19:40.754Z,4.60
2018-01-26T16:22:09.422Z,4.60
2018-01-26T16:24:38.117Z,4.60
2018-01-26T16:27:06.643Z,4.60
2018-01-26T16:29:35.003Z,4.70
2018-01-26T16:32:03.665Z,4.70
2018-01-26T16:34:32.513Z,4.60
2018-01-26T16:37:01.185Z,4.60
2018-01-26T16:39:30.011Z,4.50
2018-01-26T16:41:58.697Z,4.50
2018-01-26T16:44:27.125Z,4.40
2018-01-26T16:46:55.526Z,4.40
2018-01-26T16:49:24.931Z,4.20
2018-01-26T16:51:54.077Z,4.10
2018-01-26T16:54:21.842Z,4.10
2018-01-26T16:56:50.236Z,4.10
2018-01-26T16:59:20.060Z,4.10
2018-01-26T17:01:48.444Z,4.10
2018-01-26T17:04:17.584Z,4.00
2018-01-26T17:06:46.991Z,4.00
2018-01-26T17:09:15.322Z,4.00
2018-01-26T17:11:44.462Z,4.00
2018-01-26T17:14:12.982Z,3.90
2018-01-26T17:16:42.874Z,3.80
2018-01-26T17:19:11.322Z,3.80
2018-01-26T17:21:39.358Z,3.70
2018-01-26T17:24:08.277Z,3.70
2018-01-26T17:29:11.705Z,3.50
2018-01-26T17:31:40.223Z,3.50
2018-01-26T17:34:08.743Z,3.40
2018-01-26T17:36:37.126Z,3.40
2018-01-26T17:39:05.320Z,3.40
2018-01-26T17:41:34.002Z,3.30
2018-01-26T17:44:03.214Z,3.20
2018-01-26T17:46:31.592Z,3.20
2018-01-26T17:49:00.240Z,3.10
2018-01-26T17:51:28.291Z,3.00
2018-01-26T17:53:57.454Z,3.10
2018-01-26T17:56:25.919Z,3.10
2018-01-26T17:58:54.471Z,3.10
2018-01-26T18:01:23.278Z,3.00
2018-01-26T18:03:51.465Z,3.00
2018-01-26T18:06:20.119Z,3.00
2018-01-26T18:08:48.607Z,3.00
2018-01-26T18:11:17.105Z,2.90
2018-01-26T18:13:45.577Z,2.80
2018-01-26T18:16:14.742Z,2.70
2018-01-26T18:18:43.237Z,2.70
2018-01-26T18:21:12.031Z,2.70
2018-01-26T18:23:41.017Z,2.70
2018-01-26T18:26:09.557Z,2.60
2018-01-26T18:28:38.052Z,2.70
2018-01-26T18:31:07.487Z,2.60
2018-01-26T18:33:36.901Z,2.60
2018-01-26T18:36:05.504Z,2.60
2018-01-26T18:38:34.720Z,2.60
2018-01-26T18:41:03.747Z,2.50
2018-01-26T18:43:32.470Z,2.50
2018-01-26T18:46:01.110Z,2.50
2018-01-26T18:48:29.634Z,2.40
2018-01-26T18:50:58.278Z,2.40
2018-01-26T18:53:26.636Z,2.40
2018-01-26T18:55:55.354Z,2.40
2018-01-26T18:58:24.040Z,2.40
2018-01-26T19:00:52.567Z,2.40
2018-01-26T19:03:21.232Z,2.40
2018-01-26T19:05:50.022Z,2.40
2018-01-26T19:08:18.406Z,2.40
2018-01-26T19:10:46.853Z,2.40
2018-01-26T19:13:15.269Z,2.30
2018-01-26T19:15:45.627Z,2.30
2018-01-26T19:18:14.018Z,2.30
2018-01-26T19:20:42.885Z,2.30
2018-01-26T19:23:11.657Z,2.20
2018-01-26T19:25:39.755Z,2.30
2018-01-26T19:28:07.745Z,2.30
2018-01-26T19:30:36.389Z,2.20
2018-01-26T19:33:04.433Z,2.20
2018-01-26T19:35:33.189Z,2.20
2018-01-26T19:38:01.867Z,2.20
2018-01-26T19:40:30.656Z,2.20
2018-01-26T19:42:59.125Z,2.10
2018-01-26T19:45:27.742Z,2.10
2018-01-26T19:47:56.209Z,2.00
2018-01-26T19:50:24.814Z,2.00
2018-01-26T19:52:53.458Z,2.00
2018-01-26T19:55:21.834Z,2.00
2018-01-26T19:57:50.798Z,2.00
2018-01-26T20:00:19.465Z,2.00
2018-01-26T20:02:48.510Z,2.00
2018-01-26T20:05:33.598Z,2.00
2018-01-26T20:08:32.373Z,2.00
2018-01-26T20:11:01.803Z,1.90
2018-01-26T20:13:30.454Z,1.90
2018-01-26T20:16:01.156Z,1.90
2018-01-26T20:18:29.812Z,1.90
2018-01-26T20:20:58.238Z,1.90
2018-01-26T20:23:26.645Z,1.90
2018-01-26T20:25:56.079Z,1.90
2018-01-26T20:28:24.457Z,1.80
2018-01-26T20:30:52.846Z,1.90
2018-01-26T20:33:21.299Z,1.80
2018-01-26T20:35:50.098Z,1.80
2018-01-26T20:38:19.266Z,1.80
2018-01-26T20:40:47.530Z,1.80
2018-01-26T20:43:15.898Z,1.80
2018-01-26T20:45:44.556Z,1.80
2018-01-26T20:48:12.961Z,1.80
2018-01-26T20:50:41.606Z,1.90
2018-01-26T20:53:09.989Z,1.90
2018-01-26T20:55:38.406Z,1.90
2018-01-26T20:58:07.058Z,1.90
2018-01-26T21:00:36.217Z,1.80
2018-01-26T21:03:04.884Z,1.80
2018-01-26T21:05:34.297Z,1.90
2018-01-26T21:08:02.945Z,1.80
2018-01-26T21:10:31.350Z,1.80
2018-01-26T21:13:00.007Z,1.90
2018-01-26T21:15:28.499Z,1.90
2018-01-26T21:17:57.153Z,1.90
2018-01-26T21:20:25.873Z,1.90
2018-01-26T21:22:54.356Z,1.90
2018-01-26T21:25:23.789Z,1.90
2018-01-26T21:27:52.588Z,1.90
2018-01-26T21:30:20.971Z,1.90
2018-01-26T21:32:50.017Z,1.90
2018-01-26T21:35:18.906Z,1.90
2018-01-26T21:37:47.455Z,1.90
2018-01-26T21:40:16.119Z,1.90
2018-01-26T21:42:44.496Z,1.90
2018-01-26T21:45:12.872Z,1.90
2018-01-26T21:47:42.022Z,1.90
2018-01-26T21:50:09.900Z,1.90
2018-01-26T21:52:37.910Z,1.80
2018-01-26T21:55:06.300Z,1.90
2018-01-26T21:57:35.330Z,1.90
2018-01-26T22:00:04.476Z,1.90
2018-01-26T22:02:33.650Z,1.90
2018-01-26T22:05:07.806Z,1.90
2018-01-26T22:07:40.576Z,2.00
2018-01-26T22:10:09.313Z,2.00
2018-01-26T22:12:37.813Z,2.10
2018-01-26T22:15:06.252Z,2.20
2018-01-26T22:17:35.049Z,2.30
2018-01-26T22:20:03.813Z,2.40
2018-01-26T22:22:32.322Z,2.40
2018-01-26T22:25:00.701Z,2.40
2018-01-26T22:27:29.384Z,2.50
2018-01-26T22:29:57.986Z,2.50
2018-01-26T22:32:26.352Z,2.50
2018-01-26T22:34:54.778Z,2.60
2018-01-26T22:37:23.202Z,2.70
2018-01-26T22:39:51.586Z,2.70
2018-01-26T22:42:20.165Z,2.80
2018-01-26T22:44:48.718Z,2.90
2018-01-26T22:47:17.362Z,3.00
2018-01-26T22:49:45.950Z,3.00
2018-01-26T22:52:14.598Z,3.10
2018-01-26T22:54:42.981Z,3.10
2018-01-26T22:57:12.381Z,3.10
2018-01-26T22:59:41.181Z,3.10
2018-01-26T23:02:10.369Z,3.10
2018-01-26T23:04:38.763Z,3.10
2018-01-26T23:07:07.421Z,3.10
2018-01-26T23:09:35.809Z,3.20
2018-01-26T23:12:04.181Z,3.20
2018-01-26T23:14:33.283Z,3.20
2018-01-26T23:17:01.657Z,3.20
2018-01-26T23:19:30.252Z,3.30
2018-01-26T23:21:58.920Z,3.30
2018-01-26T23:24:27.586Z,3.30
2018-01-26T23:26:57.011Z,3.40
2018-01-26T23:29:25.396Z,3.40
2018-01-26T23:31:54.158Z,3.40
2018-01-26T23:34:22.532Z,3.40
2018-01-26T23:36:50.926Z,3.40
2018-01-26T23:39:19.496Z,3.50
2018-01-26T23:41:49.146Z,3.50
2018-01-26T23:44:17.958Z,3.50
2018-01-26T23:46:46.949Z,3.60
2018-01-26T23:49:15.502Z,3.50
2018-01-26T23:51:43.901Z,3.50
2018-01-26T23:54:12.554Z,3.50
2018-01-26T23:56:40.926Z,3.50
2018-01-26T23:59:09.578Z,3.60
